createdAt,value
2023-09-06T00:01:18.668Z,3.70
2023-09-06T00:03:51.068Z,4.27
2023-09-06T00:06:29.425Z,4.40
2023-09-06T00:09:01.726Z,4.53
2023-09-06T00:11:31.974Z,4.20
2023-09-06T00:14:04.407Z,3.70
2023-09-06T00:16:32.776Z,3.97
2023-09-06T00:19:04.675Z,4.27
2023-09-06T00:21:38.073Z,3.80
2023-09-06T00:24:07.323Z,3.90
2023-09-06T00:26:37.642Z,3.83
2023-09-06T00:29:07.683Z,3.93
2023-09-06T00:31:36.898Z,4.07
2023-09-06T00:34:08.400Z,4.10
2023-09-06T00:36:37.320Z,4.40
2023-09-06T00:39:07.011Z,4.50
2023-09-06T00:41:38.010Z,4.10
2023-09-06T00:44:07.132Z,4.70
2023-09-06T00:46:36.055Z,4.50
2023-09-06T00:49:10.923Z,4.30
2023-09-06T00:51:41.249Z,3.87
2023-09-06T00:54:13.032Z,4.00
2023-09-06T00:56:41.406Z,3.67
2023-09-06T00:59:15.476Z,4.17
2023-09-06T01:01:44.012Z,3.93
2023-09-06T01:04:13.932Z,4.03
2023-09-06T01:06:46.760Z,4.77
2023-09-06T01:09:21.107Z,4.03
2023-09-06T01:11:50.098Z,4.23
2023-09-06T01:14:22.882Z,4.20
2023-09-06T01:16:55.832Z,4.30
2023-09-06T01:19:34.679Z,4.30
2023-09-06T01:22:10.797Z,4.40
2023-09-06T01:24:42.022Z,4.63
2023-09-06T01:27:16.014Z,4.83
2023-09-06T01:29:45.334Z,4.43
2023-09-06T01:32:14.883Z,4.30
2023-09-06T01:34:43.923Z,4.60
2023-09-06T01:37:12.729Z,4.67
2023-09-06T01:39:42.307Z,4.17
2023-09-06T01:42:11.337Z,3.80
2023-09-06T01:44:43.604Z,3.87
2023-09-06T01:47:11.944Z,3.70
2023-09-06T01:49:40.453Z,3.90
2023-09-06T01:52:09.731Z,4.00
2023-09-06T01:54:39.126Z,4.10
2023-09-06T01:57:09.644Z,3.97
2023-09-06T01:59:41.567Z,4.00
2023-09-06T02:02:10.532Z,4.43
2023-09-06T02:04:42.282Z,4.00
2023-09-06T02:07:10.398Z,4.50
2023-09-06T02:09:41.071Z,4.17
2023-09-06T02:12:11.370Z,4.07
2023-09-06T02:14:39.334Z,4.33
2023-09-06T02:17:08.133Z,4.00
2023-09-06T02:19:36.734Z,3.87
2023-09-06T02:22:06.704Z,4.10
2023-09-06T02:24:35.348Z,4.10
2023-09-06T02:27:04.867Z,3.97
2023-09-06T02:29:36.724Z,3.63
2023-09-06T02:32:07.053Z,3.80
2023-09-06T02:34:36.905Z,3.87
2023-09-06T02:37:06.439Z,4.00
2023-09-06T02:39:39.946Z,4.10
2023-09-06T02:42:12.614Z,4.17
2023-09-06T02:44:43.450Z,3.97
2023-09-06T02:47:16.305Z,3.70
2023-09-06T02:49:44.937Z,4.10
2023-09-06T02:52:22.272Z,4.17
2023-09-06T02:54:54.422Z,3.90
2023-09-06T02:57:22.486Z,3.90
2023-09-06T02:59:53.204Z,4.00
2023-09-06T03:02:23.696Z,4.30
2023-09-06T03:04:56.377Z,3.87
2023-09-06T03:07:26.336Z,3.93
2023-09-06T03:09:54.736Z,4.10
2023-09-06T03:12:23.260Z,4.40
2023-09-06T03:14:56.903Z,4.00
2023-09-06T03:17:30.622Z,4.10
2023-09-06T03:20:01.133Z,4.10
2023-09-06T03:22:30.179Z,4.77
2023-09-06T03:24:58.433Z,4.50
2023-09-06T03:27:28.475Z,4.60
2023-09-06T03:29:59.399Z,4.77
2023-09-06T03:32:29.640Z,4.40
2023-09-06T03:34:59.050Z,4.53
2023-09-06T03:37:30.211Z,4.27
2023-09-06T03:39:58.227Z,4.67
2023-09-06T03:42:26.616Z,4.50
2023-09-06T03:44:54.858Z,3.97
2023-09-06T03:47:24.383Z,4.60
2023-09-06T03:49:53.578Z,3.80
2023-09-06T03:52:22.432Z,4.00
2023-09-06T03:54:52.114Z,4.00
2023-09-06T03:57:20.302Z,4.40
2023-09-06T03:59:48.473Z,5.13
2023-09-06T04:02:17.197Z,6.13
2023-09-06T04:04:47.140Z,5.40
2023-09-06T04:07:15.295Z,4.73
2023-09-06T04:09:43.954Z,4.73
2023-09-06T04:12:12.155Z,4.90
2023-09-06T04:14:45.233Z,4.87
2023-09-06T04:17:13.595Z,4.30
2023-09-06T04:19:42.192Z,4.47
2023-09-06T04:22:14.301Z,4.90
2023-09-06T04:24:44.210Z,4.70
2023-09-06T04:27:13.502Z,4.87
2023-09-06T04:29:43.524Z,4.70
2023-09-06T04:32:13.205Z,4.77
2023-09-06T04:34:41.413Z,4.60
2023-09-06T04:37:13.833Z,4.87
2023-09-06T04:39:45.226Z,4.87
2023-09-06T04:42:18.567Z,4.83
2023-09-06T04:44:46.544Z,4.30
2023-09-06T04:47:15.415Z,5.00
2023-09-06T04:49:47.085Z,8.87
2023-09-06T04:52:17.205Z,5.90
2023-09-06T04:54:49.254Z,9.10
2023-09-06T04:57:19.781Z,7.40
2023-09-06T04:59:49.896Z,5.47
2023-09-06T05:02:19.662Z,4.93
2023-09-06T05:04:49.961Z,5.83
2023-09-06T05:07:18.799Z,5.17
2023-09-06T05:09:58.488Z,5.87
2023-09-06T05:12:27.114Z,4.57
2023-09-06T05:14:55.864Z,5.17
2023-09-06T05:17:25.097Z,4.80
2023-09-06T05:19:54.807Z,5.20
2023-09-06T05:22:24.191Z,4.73
2023-09-06T05:25:08.313Z,5.03
2023-09-06T05:27:36.997Z,5.13
2023-09-06T05:30:06.548Z,5.10
2023-09-06T05:32:36.162Z,4.73
2023-09-06T05:35:06.790Z,4.60
2023-09-06T05:37:35.309Z,4.37
2023-09-06T05:40:09.654Z,4.40
2023-09-06T05:42:41.732Z,4.17
2023-09-06T05:45:14.712Z,4.07
2023-09-06T05:47:45.125Z,4.37
2023-09-06T05:50:18.864Z,4.33
2023-09-06T05:52:47.759Z,4.83
2023-09-06T05:55:18.503Z,4.63
2023-09-06T05:57:47.153Z,4.43
2023-09-06T06:00:17.555Z,4.33
2023-09-06T06:02:49.827Z,4.30
2023-09-06T06:05:22.818Z,4.40
2023-09-06T06:07:53.286Z,4.37
2023-09-06T06:10:24.767Z,4.57
2023-09-06T06:12:53.165Z,4.50
2023-09-06T06:15:21.838Z,4.73
2023-09-06T06:17:51.040Z,4.50
2023-09-06T07:36:29.571Z,4.87
2023-09-06T07:39:12.023Z,4.07
2023-09-06T07:48:57.894Z,4.50
2023-09-06T08:01:56.463Z,3.20
2023-09-06T08:14:49.229Z,3.60
2023-09-06T08:17:44.242Z,3.23
2023-09-06T08:26:49.486Z,4.23
2023-09-06T08:32:42.581Z,3.20
2023-09-06T08:52:02.250Z,3.57
2023-09-06T08:54:54.907Z,4.10
2023-09-06T09:24:53.374Z,3.93
2023-09-06T09:58:42.031Z,3.60
2023-09-06T10:04:29.887Z,3.63
2023-09-06T10:13:29.661Z,3.20
2023-09-06T10:25:28.581Z,5.35
2023-09-06T11:09:19.138Z,3.25
2023-09-06T11:51:07.797Z,3.30
2023-09-06T15:10:49.448Z,2.35
2023-09-06T16:38:18.908Z,3.05
2023-09-06T18:51:04.374Z,5.67
2023-09-06T18:53:47.804Z,5.60
2023-09-06T19:00:11.250Z,6.13
2023-09-06T19:03:04.706Z,6.40
2023-09-06T19:14:00.733Z,6.57
2023-09-06T19:16:33.329Z,9.67
2023-09-06T19:19:04.147Z,6.90
2023-09-06T19:21:33.806Z,6.93
2023-09-06T19:24:30.664Z,7.33
2023-09-06T19:27:23.875Z,6.20
2023-09-06T19:29:53.046Z,8.10
2023-09-06T19:32:26.909Z,7.03
2023-09-06T19:34:55.221Z,6.57
2023-09-06T19:37:27.497Z,7.30
2023-09-06T19:40:02.546Z,7.20
2023-09-06T19:42:53.165Z,6.73
2023-09-06T19:45:24.593Z,6.00
2023-09-06T19:47:56.137Z,7.63
2023-09-06T19:50:45.892Z,6.70
2023-09-06T19:53:19.604Z,7.30
2023-09-06T19:56:14.685Z,6.37
2023-09-06T19:58:48.213Z,8.63
2023-09-06T20:01:24.929Z,6.57
2023-09-06T20:03:54.937Z,5.60
2023-09-06T20:06:23.590Z,5.40
2023-09-06T20:08:53.533Z,6.23
2023-09-06T20:11:25.180Z,6.20
2023-09-06T20:13:53.665Z,5.43
2023-09-06T20:16:28.608Z,5.60
2023-09-06T20:19:01.079Z,4.80
2023-09-06T20:21:31.808Z,3.73
2023-09-06T20:24:02.399Z,4.07
2023-09-06T20:26:30.388Z,3.97
2023-09-06T20:29:10.316Z,4.33
2023-09-06T20:31:42.262Z,4.30
2023-09-06T20:34:14.322Z,3.90
2023-09-06T20:36:42.801Z,4.07
2023-09-06T20:39:16.032Z,4.10
2023-09-06T20:41:45.013Z,4.10
2023-09-06T20:44:13.709Z,3.97
2023-09-06T20:46:44.584Z,3.40
2023-09-06T20:49:35.592Z,3.60
2023-09-06T20:52:11.257Z,3.30
2023-09-06T20:54:40.256Z,4.00
2023-09-06T20:57:13.830Z,4.57
2023-09-06T20:59:44.682Z,4.77
2023-09-06T21:02:14.940Z,5.10
2023-09-06T21:04:44.510Z,5.33
2023-09-06T21:07:13.314Z,6.00
2023-09-06T21:09:45.510Z,5.30
2023-09-06T21:12:14.093Z,5.20
2023-09-06T21:15:03.033Z,4.53
2023-09-06T21:17:31.587Z,4.77
2023-09-06T21:20:04.469Z,4.70
2023-09-06T21:22:34.839Z,4.87
2023-09-06T21:25:03.547Z,4.40
2023-09-06T21:27:31.531Z,4.63
2023-09-06T21:30:01.539Z,3.90
2023-09-06T21:32:29.601Z,3.53
2023-09-06T21:34:58.928Z,4.10
2023-09-06T21:37:34.133Z,3.93
2023-09-06T21:40:06.836Z,5.27
2023-09-06T21:42:36.431Z,5.70
2023-09-06T21:45:09.027Z,6.47
2023-09-06T21:47:39.551Z,7.00
2023-09-06T21:50:09.703Z,6.00
2023-09-06T21:52:42.159Z,5.20
2023-09-06T21:55:18.898Z,5.07
2023-09-06T21:58:02.718Z,4.60
2023-09-06T22:00:38.550Z,5.03
2023-09-06T22:03:08.577Z,5.47
2023-09-06T22:05:39.851Z,5.10
2023-09-06T22:08:12.323Z,4.53
2023-09-06T22:10:45.559Z,5.23
2023-09-06T22:13:14.873Z,4.63
2023-09-06T22:15:50.965Z,5.20
2023-09-06T22:18:23.365Z,4.47
2023-09-06T22:20:52.606Z,5.00
2023-09-06T22:23:24.052Z,5.00
2023-09-06T22:26:02.721Z,5.03
2023-09-06T22:28:33.203Z,5.20
2023-09-06T22:31:04.151Z,5.50
2023-09-06T22:33:33.902Z,5.70
2023-09-06T22:36:03.020Z,6.10
2023-09-06T22:38:33.337Z,5.80
2023-09-06T22:41:03.145Z,6.20
2023-09-06T22:43:33.663Z,7.10
2023-09-06T22:46:04.957Z,5.87
2023-09-06T22:51:13.798Z,6.33
2023-09-06T22:53:44.638Z,7.60
2023-09-06T22:56:14.695Z,7.47
2023-09-06T22:58:43.369Z,6.53
2023-09-06T23:01:12.545Z,7.93
2023-09-06T23:03:46.002Z,7.80
2023-09-06T23:06:18.080Z,8.03
2023-09-06T23:08:48.850Z,7.40
2023-09-06T23:11:17.835Z,7.97
2023-09-06T23:13:46.102Z,8.07
2023-09-06T23:16:20.924Z,8.30
2023-09-06T23:18:50.447Z,8.10
2023-09-06T23:21:23.240Z,7.60
2023-09-06T23:24:09.434Z,8.30
2023-09-06T23:26:40.058Z,7.83
2023-09-06T23:29:11.716Z,7.87
2023-09-06T23:34:31.821Z,7.50
2023-09-06T23:37:06.930Z,8.00
2023-09-06T23:39:43.978Z,7.67
2023-09-06T23:42:14.292Z,8.23
2023-09-06T23:44:43.531Z,7.50
2023-09-06T23:47:15.768Z,8.17
2023-09-06T23:49:49.145Z,7.50
2023-09-06T23:52:20.881Z,7.40
2023-09-06T23:54:52.946Z,7.70
2023-09-06T23:57:22.357Z,7.30
2023-09-06T23:59:53.478Z,6.40
